createdAt,value
2023-08-23T00:01:40.321Z,7.80
2023-08-23T00:04:08.403Z,7.10
2023-08-23T00:06:36.594Z,6.80
2023-08-23T00:09:07.917Z,6.40
2023-08-23T00:11:36.040Z,7.90
2023-08-23T00:14:04.033Z,7.10
2023-08-23T00:16:31.956Z,8.50
2023-08-23T00:19:00.087Z,6.30
2023-08-23T00:21:31.321Z,7.90
2023-08-23T00:23:59.287Z,7.90
2023-08-23T00:26:27.672Z,7.70
2023-08-23T00:28:55.731Z,7.00
2023-08-23T00:31:23.945Z,7.90
2023-08-23T00:33:52.032Z,8.00
2023-08-23T00:36:20.248Z,7.90
2023-08-23T00:38:48.526Z,8.00
2023-08-23T00:41:16.796Z,8.60
2023-08-23T00:43:44.975Z,8.50
2023-08-23T00:46:13.740Z,7.80
2023-08-23T00:48:42.448Z,8.00
2023-08-23T00:51:11.366Z,6.70
2023-08-23T00:56:08.218Z,7.70
2023-08-23T00:58:36.682Z,7.90
2023-08-23T01:01:05.782Z,6.70
2023-08-23T01:03:34.561Z,6.50
2023-08-23T01:06:17.754Z,7.50
2023-08-23T01:08:48.961Z,8.80
2023-08-23T01:11:42.677Z,8.10
2023-08-23T01:14:41.848Z,7.70
2023-08-23T01:17:11.325Z,7.60
2023-08-23T01:19:49.362Z,8.60
2023-08-23T01:22:25.607Z,7.80
2023-08-23T01:24:54.997Z,8.90
2023-08-23T01:27:23.211Z,7.60
2023-08-23T01:29:51.240Z,8.40
2023-08-23T01:32:38.507Z,7.60
2023-08-23T01:35:18.254Z,7.90
2023-08-23T01:37:51.709Z,8.10
2023-08-23T01:40:20.106Z,7.70
2023-08-23T01:42:49.273Z,6.70
2023-08-23T01:45:17.357Z,7.40
2023-08-23T01:47:45.713Z,6.50
2023-08-23T01:50:14.407Z,5.70
2023-08-23T01:52:42.422Z,8.40
2023-08-23T01:55:10.602Z,7.80
2023-08-23T01:57:40.366Z,7.70
2023-08-23T02:00:09.198Z,7.70
2023-08-23T02:02:42.542Z,8.00
2023-08-23T02:05:10.815Z,7.70
2023-08-23T02:07:38.907Z,8.10
2023-08-23T02:10:07.569Z,8.40
2023-08-23T02:12:35.746Z,8.30
2023-08-23T02:15:04.165Z,8.50
2023-08-23T02:17:32.278Z,7.90
2023-08-23T02:20:00.236Z,8.00
2023-08-23T02:22:28.364Z,8.10
2023-08-23T02:24:57.429Z,7.80
2023-08-23T02:27:25.428Z,8.40
2023-08-23T02:29:54.040Z,7.40
2023-08-23T02:32:22.573Z,6.50
2023-08-23T02:34:50.992Z,10.90
2023-08-23T02:37:19.244Z,6.70
2023-08-23T02:39:47.428Z,6.30
2023-08-23T02:42:15.600Z,8.80
2023-08-23T02:44:43.875Z,8.30
2023-08-23T02:47:11.904Z,6.80
2023-08-23T02:49:39.827Z,8.50
2023-08-23T02:52:07.745Z,9.00
2023-08-23T02:54:37.234Z,6.80
2023-08-23T02:57:05.444Z,6.30
2023-08-23T02:59:33.455Z,7.20
2023-08-23T03:02:01.425Z,6.90
2023-08-23T03:04:29.982Z,7.30
2023-08-23T03:06:57.858Z,6.30
2023-08-23T03:09:25.725Z,6.50
2023-08-23T03:11:53.927Z,6.40
2023-08-23T03:14:21.879Z,6.10
2023-08-23T03:16:50.140Z,7.50
2023-08-23T03:19:18.312Z,8.00
2023-08-23T03:21:46.211Z,8.30
2023-08-23T03:24:14.339Z,9.10
2023-08-23T03:26:42.616Z,8.40
2023-08-23T03:29:11.392Z,7.60
2023-08-23T03:31:40.004Z,8.60
2023-08-23T03:34:09.357Z,7.40
2023-08-23T03:36:37.458Z,6.50
2023-08-23T03:39:05.474Z,7.00
2023-08-23T03:41:33.563Z,8.20
2023-08-23T03:44:01.489Z,8.20
2023-08-23T03:46:29.681Z,7.90
2023-08-23T03:48:57.945Z,8.10
2023-08-23T03:51:26.021Z,7.80
2023-08-23T03:53:54.517Z,6.30
2023-08-23T03:56:22.437Z,6.70
2023-08-23T03:58:52.014Z,6.70
2023-08-23T04:03:48.190Z,5.60
2023-08-23T04:06:16.210Z,6.90
2023-08-23T04:08:44.570Z,8.20
2023-08-23T04:11:12.778Z,8.50
2023-08-23T04:13:42.448Z,8.30
2023-08-23T04:16:13.199Z,7.80
2023-08-23T04:18:41.399Z,7.70
2023-08-23T04:21:09.439Z,6.90
2023-08-23T04:26:06.397Z,6.80
2023-08-23T04:28:34.404Z,7.80
2023-08-23T04:31:02.908Z,8.10
2023-08-23T04:33:37.385Z,9.10
2023-08-23T04:36:05.942Z,7.90
2023-08-23T04:38:34.027Z,6.80
2023-08-23T04:41:03.407Z,8.30
2023-08-23T04:43:33.036Z,8.40
2023-08-23T04:46:01.669Z,8.00
2023-08-23T04:48:29.883Z,7.20
2023-08-23T04:50:59.157Z,7.40
2023-08-23T04:53:28.594Z,9.80
2023-08-23T04:56:00.112Z,10.10
2023-08-23T04:58:31.491Z,9.90
2023-08-23T05:01:05.152Z,8.70
2023-08-23T05:03:34.645Z,9.60
2023-08-23T05:06:03.720Z,9.20
2023-08-23T05:08:33.685Z,9.00
2023-08-23T05:11:04.811Z,9.30
2023-08-23T05:13:32.944Z,9.50
2023-08-23T05:16:02.223Z,8.50
2023-08-23T05:18:30.621Z,8.30
2023-08-23T05:21:03.779Z,7.60
2023-08-23T05:23:32.300Z,7.50
2023-08-23T05:26:01.796Z,6.40
2023-08-23T05:28:30.622Z,6.90
2023-08-23T05:31:04.346Z,6.50
2023-08-23T05:33:32.920Z,6.40
2023-08-23T05:36:00.766Z,6.50
2023-08-23T05:38:30.468Z,7.60
2023-08-23T05:40:59.757Z,6.30
2023-08-23T05:43:28.746Z,7.70
2023-08-23T05:45:57.962Z,7.60
2023-08-23T05:48:26.045Z,7.80
2023-08-23T05:50:54.429Z,7.50
2023-08-23T05:53:22.317Z,6.40
2023-08-23T05:55:51.076Z,6.90
2023-08-23T05:58:19.884Z,6.50
2023-08-23T06:00:50.635Z,7.10
2023-08-23T06:03:18.868Z,7.80
2023-08-23T06:05:47.111Z,7.40
2023-08-23T06:08:15.122Z,6.90
2023-08-23T06:10:43.022Z,7.90
2023-08-23T06:13:10.865Z,6.80
2023-08-23T06:18:07.564Z,8.80
2023-08-23T06:20:35.569Z,8.60
2023-08-23T06:23:04.159Z,7.70
2023-08-23T06:25:32.177Z,8.60
2023-08-23T06:27:59.973Z,7.80
2023-08-23T06:32:57.258Z,7.70
2023-08-23T06:35:27.474Z,7.30
2023-08-23T06:37:55.861Z,7.90
2023-08-23T06:40:24.443Z,7.50
2023-08-23T06:42:52.420Z,8.10
2023-08-23T06:45:20.678Z,8.00
2023-08-23T06:47:50.560Z,7.60
2023-08-23T06:50:19.058Z,7.30
2023-08-23T06:52:47.726Z,8.10
2023-08-23T06:55:15.999Z,8.00
2023-08-23T06:57:44.045Z,8.10
2023-08-23T07:00:13.931Z,7.80
2023-08-23T07:02:42.497Z,8.30
2023-08-23T07:05:10.569Z,8.60
2023-08-23T07:07:38.888Z,8.50
2023-08-23T07:10:17.885Z,8.40
2023-08-23T07:12:55.252Z,7.40
2023-08-23T07:15:24.241Z,8.50
2023-08-23T07:17:52.232Z,9.50
2023-08-23T07:20:20.578Z,9.80
2023-08-23T07:22:48.659Z,9.00
2023-08-23T07:25:17.338Z,7.30
2023-08-23T07:27:46.092Z,8.20
2023-08-23T07:30:14.980Z,8.90
2023-08-23T07:32:44.089Z,8.30
2023-08-23T07:35:12.185Z,7.60
2023-08-23T07:37:40.285Z,7.10
2023-08-23T07:40:10.905Z,8.90
2023-08-23T07:42:39.336Z,7.40
2023-08-23T07:45:09.127Z,7.20
2023-08-23T07:47:38.186Z,6.80
2023-08-23T07:50:07.480Z,7.60
2023-08-23T07:52:36.752Z,7.40
2023-08-23T07:55:06.551Z,7.20
2023-08-23T07:57:34.857Z,7.30
2023-08-23T08:00:03.214Z,7.80
2023-08-23T08:02:34.498Z,7.20
2023-08-23T08:05:02.699Z,7.40
2023-08-23T08:10:21.394Z,6.90
2023-08-23T08:12:49.495Z,7.70
2023-08-23T08:15:17.622Z,7.20
2023-08-23T08:17:46.565Z,7.40
2023-08-23T08:20:15.267Z,6.60
2023-08-23T08:22:43.408Z,6.40
2023-08-23T08:25:14.097Z,6.80
2023-08-23T08:27:43.041Z,7.70
2023-08-23T08:30:11.858Z,7.50
2023-08-23T08:32:40.103Z,7.00
2023-08-23T08:35:34.973Z,7.70
2023-08-23T08:38:03.409Z,8.20
2023-08-23T08:45:28.517Z,8.10
2023-08-23T08:47:56.695Z,7.00
2023-08-23T08:52:57.371Z,9.10
2023-08-23T08:55:26.053Z,7.10
2023-08-23T08:57:55.578Z,8.80
2023-08-23T09:00:31.134Z,7.50
2023-08-23T09:03:00.759Z,7.00
2023-08-23T09:05:29.498Z,7.80
2023-08-23T09:07:58.193Z,7.40
2023-08-23T09:10:26.354Z,6.90
2023-08-23T09:12:54.394Z,7.50
2023-08-23T09:15:25.419Z,6.60
2023-08-23T09:17:57.072Z,7.10
2023-08-23T09:20:25.697Z,7.60
2023-08-23T09:22:54.608Z,7.10
2023-08-23T09:25:24.871Z,8.90
2023-08-23T09:27:56.384Z,7.00
2023-08-23T09:30:25.523Z,7.40
2023-08-23T09:32:53.842Z,7.30
2023-08-23T09:35:22.071Z,6.90
2023-08-23T09:37:50.720Z,6.60
2023-08-23T09:40:27.996Z,6.40
2023-08-23T09:42:59.831Z,7.40
2023-08-23T09:45:29.421Z,6.80
2023-08-23T09:48:03.378Z,6.20
2023-08-23T09:50:33.731Z,6.00
2023-08-23T09:53:07.499Z,6.50
2023-08-23T09:55:36.218Z,7.70
2023-08-23T09:58:04.722Z,6.40
2023-08-23T10:00:33.911Z,6.40
2023-08-23T10:03:02.451Z,6.40
2023-08-23T10:05:31.010Z,6.30
2023-08-23T10:07:59.046Z,5.50
2023-08-23T10:10:28.768Z,5.90
2023-08-23T10:13:05.364Z,6.20
2023-08-23T10:15:37.156Z,6.70
2023-08-23T10:18:09.260Z,6.00
2023-08-23T10:20:38.389Z,7.60
2023-08-23T10:23:17.245Z,7.40
2023-08-23T10:25:49.559Z,6.80
2023-08-23T10:28:19.571Z,6.50
2023-08-23T10:30:50.975Z,7.00
2023-08-23T10:33:21.210Z,6.40
2023-08-23T10:35:49.338Z,6.10
2023-08-23T10:43:19.633Z,3.90
2023-08-23T10:46:03.998Z,3.80
2023-08-23T10:48:33.116Z,3.40
2023-08-23T10:51:01.994Z,3.60
2023-08-23T10:53:31.516Z,3.30
2023-08-23T10:56:03.750Z,3.90
2023-08-23T10:58:32.947Z,3.50
2023-08-23T11:01:01.240Z,3.50
2023-08-23T11:03:29.928Z,3.40
2023-08-23T11:05:58.132Z,3.40
2023-08-23T11:08:26.420Z,3.10
2023-08-23T11:10:54.491Z,3.10
2023-08-23T11:13:22.843Z,3.20
2023-08-23T11:15:51.048Z,3.70
2023-08-23T11:18:19.369Z,3.60
2023-08-23T11:20:47.655Z,3.10
2023-08-23T11:23:15.574Z,3.20
2023-08-23T11:25:43.575Z,3.40
2023-08-23T11:28:13.869Z,3.50
2023-08-23T11:30:45.376Z,3.80
2023-08-23T11:33:13.678Z,3.80
2023-08-23T11:35:41.744Z,3.60
2023-08-23T11:38:09.944Z,3.30
2023-08-23T11:40:37.970Z,3.10
2023-08-23T11:43:21.868Z,3.70
2023-08-23T11:45:53.902Z,3.90
2023-08-23T11:48:25.007Z,3.80
2023-08-23T11:50:54.137Z,4.10
2023-08-23T11:53:22.343Z,4.10
2023-08-23T11:55:51.395Z,4.30
2023-08-23T11:58:19.721Z,3.90
2023-08-23T12:03:18.711Z,3.80
2023-08-23T12:08:15.126Z,3.90
2023-08-23T12:10:43.331Z,4.80
2023-08-23T12:13:13.471Z,4.50
2023-08-23T12:15:41.924Z,5.50
2023-08-23T12:20:37.904Z,5.40
2023-08-23T12:23:05.795Z,5.30
2023-08-23T12:25:34.694Z,5.10
2023-08-23T12:28:02.665Z,4.70
2023-08-23T12:30:31.869Z,5.20
2023-08-23T12:33:00.006Z,5.80
2023-08-23T12:35:27.981Z,5.50
2023-08-23T12:37:55.922Z,5.10
2023-08-23T12:40:24.054Z,5.70
2023-08-23T12:42:53.148Z,5.80
2023-08-23T12:45:21.750Z,5.40
2023-08-23T12:50:18.894Z,6.70
2023-08-23T12:52:46.999Z,6.30
2023-08-23T12:55:15.249Z,6.70
2023-08-23T12:57:43.248Z,5.70
2023-08-23T13:03:01.255Z,5.50
2023-08-23T13:05:29.552Z,6.70
2023-08-23T13:07:57.820Z,6.90
2023-08-23T13:12:54.098Z,6.40
2023-08-23T13:15:22.253Z,7.20
2023-08-23T13:17:55.708Z,6.30
2023-08-23T13:20:25.726Z,7.60
2023-08-23T13:22:54.553Z,7.40
2023-08-23T13:25:22.729Z,7.60
2023-08-23T13:27:51.335Z,7.30
2023-08-23T13:30:19.895Z,5.90
2023-08-23T13:32:47.861Z,7.20
2023-08-23T13:35:16.345Z,8.60
2023-08-23T13:37:47.821Z,7.40
2023-08-23T13:40:16.360Z,6.40
2023-08-23T13:42:44.455Z,7.30
2023-08-23T13:45:12.453Z,7.30
2023-08-23T13:47:40.725Z,6.00
2023-08-23T13:50:10.471Z,6.00
2023-08-23T13:52:38.526Z,7.50
2023-08-23T13:55:07.663Z,6.20
2023-08-23T13:57:36.994Z,6.80
2023-08-23T14:00:06.037Z,6.60
2023-08-23T14:02:36.053Z,5.90
2023-08-23T14:05:05.032Z,6.50
2023-08-23T14:07:33.081Z,7.60
2023-08-23T14:10:01.141Z,7.90
2023-08-23T14:12:29.364Z,8.50
2023-08-23T14:14:57.283Z,8.40
2023-08-23T14:17:25.214Z,6.60
2023-08-23T14:19:55.385Z,6.50
2023-08-23T14:22:23.669Z,6.10
2023-08-23T14:24:52.014Z,5.00
2023-08-23T14:27:19.916Z,5.10
2023-08-23T14:29:48.374Z,4.90
2023-08-23T14:32:18.504Z,6.10
2023-08-23T14:34:47.282Z,6.00
2023-08-23T14:37:15.239Z,6.30
2023-08-23T14:39:45.390Z,5.30
2023-08-23T14:42:13.278Z,5.40
2023-08-23T14:44:41.518Z,5.20
2023-08-23T14:47:10.768Z,4.70
2023-08-23T14:49:38.945Z,4.70
2023-08-23T14:52:07.022Z,4.60
2023-08-23T14:54:35.135Z,4.20
2023-08-23T14:57:03.311Z,4.30
2023-08-23T14:59:31.381Z,5.00
2023-08-23T15:01:59.507Z,4.70
2023-08-23T15:06:55.529Z,5.50
2023-08-23T15:09:23.386Z,4.30
2023-08-23T15:11:51.431Z,4.70
2023-08-23T15:14:19.921Z,4.80
2023-08-23T15:16:48.105Z,3.80
2023-08-23T15:19:16.166Z,4.50
2023-08-23T15:21:44.321Z,5.10
2023-08-23T15:24:12.616Z,5.10
2023-08-23T15:26:40.822Z,5.10
2023-08-23T15:31:37.275Z,3.90
2023-08-23T15:34:05.762Z,4.40
2023-08-23T15:36:35.482Z,4.60
2023-08-23T15:39:04.341Z,4.50
2023-08-23T15:44:00.977Z,3.40
2023-08-23T15:46:29.151Z,4.10
2023-08-23T15:48:57.270Z,3.90
2023-08-23T15:51:25.258Z,4.10
2023-08-23T15:53:53.732Z,3.60
2023-08-23T15:56:26.357Z,3.70
2023-08-23T15:58:54.836Z,3.70
2023-08-23T16:01:23.100Z,4.80
2023-08-23T16:03:51.302Z,5.50
2023-08-23T16:06:20.054Z,5.90
2023-08-23T16:08:48.144Z,5.10
2023-08-23T16:11:16.530Z,4.20
2023-08-23T16:13:44.597Z,4.40
2023-08-23T16:16:12.663Z,4.60
2023-08-23T16:18:40.656Z,3.30
2023-08-23T16:21:08.772Z,4.80
2023-08-23T16:23:39.757Z,4.30
2023-08-23T16:26:09.848Z,3.70
2023-08-23T16:28:38.029Z,4.80
2023-08-23T16:31:06.369Z,4.10
2023-08-23T16:33:34.392Z,4.10
2023-08-23T16:36:02.353Z,3.30
2023-08-23T16:38:30.440Z,3.70
2023-08-23T16:43:33.395Z,4.20
2023-08-23T16:46:01.724Z,3.80
2023-08-23T16:48:30.181Z,3.70
2023-08-23T16:51:01.036Z,3.50
2023-08-23T16:53:30.335Z,3.30
2023-08-23T16:56:01.387Z,3.70
2023-08-23T16:58:31.654Z,3.20
2023-08-23T17:01:00.643Z,3.40
2023-08-23T17:03:31.317Z,3.20
2023-08-23T17:06:07.625Z,3.50
2023-08-23T17:08:35.817Z,3.30
2023-08-23T17:11:07.035Z,3.00
2023-08-23T17:13:35.279Z,3.30
2023-08-23T17:16:03.665Z,3.50
2023-08-23T17:18:35.094Z,3.40
2023-08-23T17:21:04.620Z,3.40
2023-08-23T17:23:34.730Z,3.70
2023-08-23T17:26:03.275Z,3.90
2023-08-23T17:28:31.712Z,2.70
2023-08-23T17:31:00.842Z,3.70
2023-08-23T17:33:28.980Z,3.90
2023-08-23T17:35:59.120Z,4.10
2023-08-23T17:38:27.266Z,3.60
2023-08-23T17:40:55.451Z,3.80
2023-08-23T17:43:23.392Z,3.00
2023-08-23T17:45:51.507Z,3.00
2023-08-23T17:48:19.954Z,3.30
2023-08-23T17:50:48.150Z,3.60
2023-08-23T17:53:16.000Z,3.30
2023-08-23T17:55:44.119Z,2.90
2023-08-23T17:58:12.183Z,2.80
2023-08-23T18:00:40.210Z,3.20
2023-08-23T18:03:08.140Z,3.30
2023-08-23T18:05:36.300Z,2.80
2023-08-23T18:08:04.765Z,3.00
2023-08-23T18:10:32.676Z,2.70
2023-08-23T18:13:00.799Z,3.20
2023-08-23T18:15:28.935Z,3.60
2023-08-23T18:17:57.078Z,3.20
2023-08-23T18:20:25.086Z,3.40
2023-08-23T18:22:54.595Z,3.40
2023-08-23T18:25:22.692Z,3.50
2023-08-23T18:27:50.756Z,3.30
2023-08-23T18:30:18.758Z,3.10
2023-08-23T18:32:46.986Z,3.10
2023-08-23T18:35:15.391Z,3.90
2023-08-23T18:37:43.460Z,3.50
2023-08-23T18:40:12.137Z,3.60
2023-08-23T18:42:40.317Z,3.70
2023-08-23T18:45:08.899Z,4.20
2023-08-23T18:47:36.973Z,3.80
2023-08-23T18:50:05.916Z,3.60
2023-08-23T18:55:01.753Z,2.60
2023-08-23T18:57:30.397Z,2.70
2023-08-23T18:59:58.567Z,3.00
2023-08-23T19:02:27.062Z,3.20
2023-08-23T19:04:55.321Z,3.90
2023-08-23T19:07:23.447Z,3.90
2023-08-23T19:09:51.526Z,3.50
2023-08-23T19:12:19.463Z,4.70
2023-08-23T19:14:47.644Z,4.00
2023-08-23T19:17:15.682Z,4.00
2023-08-23T19:19:47.012Z,3.80
2023-08-23T19:22:15.100Z,4.00
2023-08-23T19:24:42.972Z,4.20
2023-08-23T19:27:11.041Z,3.30
2023-08-23T19:29:40.476Z,3.60
2023-08-23T19:32:12.087Z,4.40
2023-08-23T19:34:40.344Z,3.60
2023-08-23T19:37:08.964Z,3.80
2023-08-23T19:39:37.085Z,4.10
2023-08-23T19:42:05.468Z,4.60
2023-08-23T19:44:33.485Z,3.60
2023-08-23T19:47:01.871Z,3.50
2023-08-23T19:49:29.801Z,3.90
2023-08-23T19:51:58.257Z,3.30
2023-08-23T19:54:26.198Z,3.20
2023-08-23T19:56:54.118Z,3.00
2023-08-23T19:59:22.085Z,2.80
2023-08-23T20:01:50.615Z,3.80
2023-08-23T20:04:18.699Z,4.00
2023-08-23T20:06:47.053Z,3.80
2023-08-23T20:09:15.203Z,3.50
2023-08-23T20:11:44.527Z,3.60
2023-08-23T20:14:12.498Z,3.30
2023-08-23T20:16:40.730Z,3.60
2023-08-23T20:19:09.586Z,4.20
2023-08-23T20:21:38.172Z,4.00
2023-08-23T20:24:09.678Z,4.20
2023-08-23T20:26:37.657Z,4.10
2023-08-23T20:29:07.915Z,4.40
2023-08-23T20:31:35.769Z,4.30
2023-08-23T20:34:04.753Z,4.40
2023-08-23T20:36:32.920Z,3.90
2023-08-23T20:39:00.852Z,4.30
2023-08-23T20:41:28.844Z,4.20
2023-08-23T20:43:56.898Z,3.40
2023-08-23T20:46:24.882Z,3.50
2023-08-23T20:48:53.081Z,4.50
2023-08-23T20:51:21.079Z,4.10
2023-08-23T20:53:50.132Z,3.60
2023-08-23T20:58:46.317Z,3.30
2023-08-23T21:01:14.368Z,4.20
2023-08-23T21:03:42.414Z,4.20
2023-08-23T21:06:11.831Z,3.90
2023-08-23T21:08:40.635Z,4.10
2023-08-23T21:13:36.571Z,3.50
2023-08-23T21:16:04.666Z,4.00
2023-08-23T21:18:32.601Z,3.80
2023-08-23T21:21:00.884Z,4.00
2023-08-23T21:23:29.540Z,4.30
2023-08-23T21:25:57.725Z,3.80
2023-08-23T21:28:25.713Z,3.80
2023-08-23T21:30:53.782Z,4.00
2023-08-23T21:33:23.203Z,3.60
2023-08-23T21:35:51.609Z,3.80
2023-08-23T21:38:19.948Z,3.70
2023-08-23T21:40:55.583Z,3.80
2023-08-23T21:43:26.418Z,4.00
2023-08-23T21:45:54.564Z,3.80
2023-08-23T21:48:23.823Z,3.40
2023-08-23T21:50:52.880Z,3.10
2023-08-23T21:53:21.075Z,3.50
2023-08-23T21:55:54.963Z,3.60
2023-08-23T21:58:29.509Z,4.10
2023-08-23T22:01:01.601Z,3.90
2023-08-23T22:03:38.358Z,3.70
2023-08-23T22:06:08.741Z,3.50
2023-08-23T22:08:38.742Z,4.20
2023-08-23T22:11:10.107Z,3.90
2023-08-23T22:13:42.608Z,4.00
2023-08-23T22:16:11.561Z,3.80
2023-08-23T22:18:40.178Z,4.20
2023-08-23T22:21:11.424Z,4.50
2023-08-23T22:23:39.658Z,4.20
2023-08-23T22:26:07.987Z,4.50
2023-08-23T22:28:35.993Z,4.40
2023-08-23T22:31:04.199Z,4.70
2023-08-23T22:33:32.224Z,3.70
2023-08-23T22:36:00.319Z,5.10
2023-08-23T22:38:28.586Z,3.70
2023-08-23T22:40:56.979Z,4.00
2023-08-23T22:43:25.446Z,3.50
2023-08-23T22:45:54.832Z,4.00
2023-08-23T22:48:23.410Z,4.20
2023-08-23T22:50:52.007Z,3.90
2023-08-23T22:53:20.160Z,3.50
2023-08-23T22:55:48.306Z,3.70
2023-08-23T22:58:16.526Z,3.80
2023-08-23T23:00:44.660Z,3.30
2023-08-23T23:03:12.774Z,3.40
2023-08-23T23:05:41.126Z,3.80
2023-08-23T23:08:09.337Z,3.80
2023-08-23T23:10:37.793Z,4.40
2023-08-23T23:13:05.930Z,4.00
2023-08-23T23:15:34.356Z,3.30
2023-08-23T23:18:03.716Z,3.50
2023-08-23T23:20:31.741Z,4.50
2023-08-23T23:22:59.697Z,4.90
2023-08-23T23:25:29.200Z,4.40
2023-08-23T23:27:57.141Z,4.90
2023-08-23T23:30:25.886Z,3.80
2023-08-23T23:32:54.118Z,3.60
2023-08-23T23:35:22.469Z,4.80
2023-08-23T23:37:50.596Z,4.50
2023-08-23T23:40:19.112Z,3.70
2023-08-23T23:42:47.036Z,3.20
2023-08-23T23:45:35.355Z,3.90
2023-08-23T23:48:04.188Z,3.80
2023-08-23T23:50:33.006Z,3.60
2023-08-23T23:53:01.823Z,3.40
2023-08-23T23:55:30.137Z,4.40
2023-08-23T23:57:58.339Z,4.50
